CYRL

Red Lake Airport

Red Lake, Ontario, Canada
METAR CYRL 151900Z 06003KT 040V110 15SM FEW090 M22/M27 A2979 RMK AC1 SLP133
Observed Flight Rules
Dec-15 @ 19:00 UTC (51 minutes ago) Visual Flight Rules
Wind Visibility Clouds
60° at 3 knots 15 miles
  • Few at 9,000' AGL
Temperatures Readings
Current -22°C / -8°F
Dewpoint -27°C / -17°F
Humidity 64%
Altimeter 29.79" Hg
Pressure 1013.3 hPa
Elevation 383
METAR CYRL 151900Z 06003KT 040V110 15SM FEW090 M22/M27 A2979 RMK AC1 SLP133
Observed Flight Rules
Dec-15 @ 19:00 UTC
(51 minutes ago)
VFR
Wind Visibility
60° at 3 knots 15 miles
Clouds
  • Few at 9,000' AGL
Temperature Dewpoint
-22°C / -8°F -27°C / -17°F
Humidity Altimeter Pressure
64% 29.79" Hg 1013.3 hPa